Latest Coastal Weather Observations for Low Head

IDV60701

Issued at 9:45 pm EDT Tuesday 21 October 2014 (issued every 10 minutes, with the page automatically refreshed every 10 minutes)

About coastal observations | Map of coastal stations | Coastal observations for VIC | Marine services | Other Formats
Station Details ID: 091293 Name: LOW HEAD Lat: -41.05 Lon: 146.79 Height: 3.0 m
Data from the previous 72 hours. | See also: Recent months at Low Head
Date/Time
EDT
Temp

°C
Wind Pressure Rain
since 9am
mm
Weather Cloud Vis
km
Sea
Height
m
Swell
Dir
 
Speed
knots
Gust
knots
hPa Trend Height
m
Period
s
Dir
21/09:30pm 11.6 ESE 7 9 1029.2 - 0.0 - - - - - - -
21/09:00pm 12.7 E 10 13 1029.2 - 0.0 - - - - - - -
21/08:30pm 13.4 E 13 16 1029.1 - 0.0 - - - - - - -
21/08:00pm 14.0 ENE 18 22 1028.8 - 0.0 - - - - - - -
21/07:30pm 14.2 ENE 19 23 1028.5 - 0.0 - - - - - - -
21/07:00pm 14.4 ENE 19 22 1028.5 - 0.0 - - - - - - -
21/06:30pm 14.5 NE 17 20 1028.8 - 0.0 - - - - - - -
21/06:00pm 14.8 NE 17 19 1029.3 - 0.0 - - - - - - -
21/05:30pm 15.1 NE 18 21 1029.3 - 0.0 - - - - - - -
21/05:00pm 15.3 NE 16 18 1029.4 - 0.0 - - - - - - -
21/04:30pm 15.5 NE 17 19 1029.6 - 0.0 - - - - - - -
21/04:00pm 15.6 NE 18 20 1029.9 - 0.0 - - - - - - -
21/03:30pm 15.9 ENE 17 19 1030.2 - 0.0 - - - - - - -
21/03:00pm 15.9 ENE 17 19 1030.8 F 0.0 Fine Mostly clear 25 <0.5 0.5 3 NE
21/02:30pm 15.7 ENE 17 21 1031.1 - 0.0 - - - - - - -
21/02:00pm 15.8 NE 16 19 1031.7 - 0.0 - - - - - - -
21/01:30pm 15.7 ENE 17 21 1032.0 - 0.0 - - - - - - -
21/01:00pm 15.4 ENE 16 21 1032.3 - 0.0 - - - - - - -
21/12:30pm 15.1 ENE 14 17 1032.7 - 0.0 - - - - - - -
21/12:00pm 15.2 ENE 16 22 1033.1 - 0.0 - - - - - - -
21/11:30am 14.7 ENE 15 21 1033.1 - 0.0 - - - - - - -
21/11:00am 14.3 ENE 16 19 1033.6 - 0.0 - - - - - - -
21/10:30am 14.2 ENE 15 19 1033.8 - 0.0 - - - - - - -
21/10:00am 14.0 E 14 20 1033.8 - 0.0 - - - - - - -
21/09:30am 12.9 E 11 15 1034.0 - 0.0 - - - - - - -
21/09:00am 11.5 SSE 9 11 1034.1 R 0.0 Fine Cloudy 20 <0.1 0.3 3 -
21/08:30am 11.0 SSE 8 10 1034.1 - 0.0 - - - - - - -
21/08:00am 10.5 SSE 8 11 1033.9 - 0.0 - - - - - - -
21/07:30am 9.9 SSE 9 12 1033.5 - 0.0 - - - - - - -
21/07:00am 9.5 SSE 9 11 1033.2 - 0.0 - - - - - - -
21/06:30am 9.8 SE 7 9 1032.8 - 0.0 - - - - - - -
21/06:00am 9.3 SSE 6 8 1032.6 F 0.0 Fine Cloudy 20 <0.1 0.3 5 -
21/05:30am 9.1 SSE 8 11 1032.6 - 0.0 - - - - - - -
21/05:00am 9.6 S 10 13 1032.7 - 0.0 - - - - - - -
21/04:30am 9.9 SE 7 10 1032.8 - 0.0 - - - - - - -
21/04:00am 9.5 ESE 9 13 1032.6 - 0.0 - - - - - - -
21/03:30am 9.1 E 11 14 1033.1 - 0.0 - - - - - - -
21/03:00am 8.9 ESE 9 13 1033.5 - 0.0 - - - - - - -
21/02:30am 8.5 E 9 12 1033.4 - 0.0 - - - - - - -
21/02:00am 8.3 E 11 13 1033.6 - 0.0 - - - - - - -
21/01:30am 9.0 E 8 13 1034.0 - 0.0 - - - - - - -
21/01:00am 8.8 E 10 13 1034.1 - 0.0 - - - - - - -
21/12:30am 9.1 E 8 12 1034.3 - 0.0 - - - - - - -
21/12:00am 9.2 E 9 12 1034.5 - 0.0 - - - - - - -
 
Date/Time
EDT
Temp

°C
Wind Pressure Rain
since 9am
mm
Weather Cloud Vis
km
Sea
Height
m
Swell
Dir
 
Speed
knots
Gust
knots
hPa Trend Height
m
Period
s
Dir
20/11:30pm 8.9 E 9 11 1034.7 - 0.0 - - - - - - -
20/11:00pm 9.1 E 10 13 1034.7 - 0.0 - - - - - - -
20/10:30pm 9.9 E 9 11 1034.8 - 0.0 - - - - - - -
20/10:00pm 9.8 E 9 11 1034.8 - 0.0 - - - - - - -
20/09:30pm 10.4 E 9 11 1034.7 - 0.0 - - - - - - -
20/09:00pm 10.6 E 8 9 1034.5 - 0.0 - - - - - - -
20/08:30pm 11.8 E 9 11 1034.1 - 0.0 - - - - - - -
20/08:00pm 12.6 NE 11 13 1033.8 - 0.0 - - - - - - -
20/07:30pm 12.5 NE 8 10 1033.6 - 0.0 - - - - - - -
20/07:00pm 12.8 NNE 9 11 1033.3 - 0.0 - - - - - - -
20/06:30pm 13.0 NNE 6 8 1033.1 - 0.0 - - - - - - -
20/06:00pm 13.2 NNE 7 9 1033.2 - 0.0 - - - - - - -
20/05:30pm 12.8 N 8 9 1033.3 - 0.0 - - - - - - -
20/05:00pm 13.2 NNE 8 10 1033.2 - 0.0 - - - - - - -
20/04:30pm 13.1 NNE 10 13 1033.2 - 0.0 - - - - - - -
20/04:00pm 13.2 NNE 11 13 1033.1 - 0.0 - - - - - - -
20/03:30pm 12.9 NNE 11 13 1033.3 - 0.0 - - - - - - -
20/03:00pm 13.1 N 13 16 1033.4 R 0.0 Fine Mostly clear 25 1 0.5 3 -
20/02:30pm 12.7 N 13 14 1033.6 - 0.0 - - - - - - -
20/02:00pm 13.3 N 12 13 1033.7 - 0.0 - - - - - - -
20/01:30pm 14.3 N 10 11 1034.1 - 0.0 - - - - - - -
20/01:00pm 12.9 N 10 12 1034.2 - 0.0 - - - - - - -
20/12:30pm 12.9 N 9 13 1034.2 - 0.0 - - - - - - -
20/12:00pm 12.9 S 11 15 1034.2 - 0.0 - - - - - - -
20/11:30am 12.1 S 14 17 1034.1 - 0.0 - - - - - - -
20/11:00am 12.0 S 13 17 1034.3 - 0.0 - - - - - - -
20/10:30am 11.5 SSE 13 18 1034.2 - 0.0 - - - - - - -
20/10:00am 10.9 SSE 15 20 1034.1 - 0.0 - - - - - - -
20/09:30am 10.4 SSE 14 21 1033.7 - 0.0 - - - - - - -
20/09:00am 9.8 SSE 9 16 1033.5 F 0.0 Fine Mostly clear 25 <0.1 0.1 3 -
20/08:30am 8.5 S 6 9 1033.4 - 0.0 - - - - - - -
20/08:00am 7.6 SSE 7 9 1033.0 - 0.0 - - - - - - -
20/07:30am 6.3 SE 6 8 1032.4 - 0.0 - - - - - - -
20/07:00am 6.2 SE 7 8 1032.0 - 0.0 - - - - - - -
20/06:30am 6.2 SE 5 6 1031.8 - 0.0 - - - - - - -
20/06:00am 6.1 SE 5 6 1031.5 S 0.0 Fine Clear 25 <0.1 0.1 3 -
20/05:30am 5.9 SE 6 8 1030.9 - 0.0 - - - - - - -
20/05:00am 6.5 ESE 6 8 1030.4 - 0.0 - - - - - - -
20/04:30am 6.5 SE 3 7 1029.9 - 0.0 - - - - - - -
20/04:00am 6.5 S 6 8 1029.8 - 0.0 - - - - - - -
20/03:30am 6.9 SSE 5 7 1029.5 - 0.0 - - - - - - -
20/03:00am 7.9 S 9 12 1029.3 - 0.0 - - - - - - -
20/02:30am 9.2 S 9 13 1028.9 - 0.0 - - - - - - -
20/02:00am 9.4 SSW 13 15 1028.3 - 0.0 - - - - - - -
20/01:30am 9.7 S 13 15 1027.9 - 0.0 - - - - - - -
20/01:00am 10.1 S 15 18 1027.4 - 0.0 - - - - - - -
20/12:30am 10.3 SSW 13 17 1027.0 - 0.0 - - - - - - -
20/12:00am 10.6 SSW 12 14 1026.7 - 0.0 - - - - - - -
 
Date/Time
EDT
Temp

°C
Wind Pressure Rain
since 9am
mm
Weather Cloud Vis
km
Sea
Height
m
Swell
Dir
 
Speed
knots
Gust
knots
hPa Trend Height
m
Period
s
Dir
19/11:30pm 11.0 SSW 15 17 1025.6 - 0.0 - - - - - - -
19/11:00pm 11.3 SW 15 17 1025.0 - 0.0 - - - - - - -
19/10:30pm 11.5 SW 15 18 1024.4 - 0.0 - - - - - - -
19/10:00pm 12.0 SW 13 15 1023.6 - 0.0 - - - - - - -
19/09:30pm 12.4 SW 18 23 1022.7 - 0.0 - - - - - - -
19/09:00pm 12.9 SW 15 21 1021.6 - 0.0 - - - - - - -
19/08:30pm 13.2 WSW 19 23 1020.7 - 0.0 - - - - - - -
19/08:00pm 13.5 WSW 21 24 1019.9 - 0.0 - - - - - - -
19/07:30pm 13.7 WSW 18 21 1019.3 - 0.0 - - - - - - -
19/07:00pm 14.0 WSW 21 25 1018.7 - 0.0 - - - - - - -
19/06:30pm 14.7 W 25 29 1018.0 - 0.0 - - - - - - -
19/06:00pm 15.7 WSW 21 25 1017.0 - 0.0 - - - - - - -
19/05:30pm 16.0 W 19 21 1016.5 - 0.0 - - - - - - -
19/05:00pm 16.4 WSW 22 25 1016.1 - 0.0 - - - - - - -
19/04:36pm 16.5 W 20 23 1015.9 - 0.0 - - - - - - -
19/04:30pm 15.7 WNW 15 18 1016.0 - 0.0 - - - - - - -
19/04:00pm 15.8 WNW 17 21 1015.2 - 0.0 - - - - - - -
19/03:30pm 16.6 NW 19 24 1015.0 - 0.0 - - - - - - -
19/03:00pm 17.1 WNW 19 21 1015.4 F 0.0 Fine Mostly cloudy 25 2 1.5 3 -
19/02:30pm 16.7 NW 19 23 1015.7 - 0.0 - - - - - - -
19/02:00pm 16.1 NW 19 23 1016.1 - 0.0 - - - - - - -
19/01:30pm 16.6 WNW 17 21 1016.6 - 0.0 - - - - - - -
19/01:00pm 16.2 NW 16 20 1016.5 - 0.0 - - - - - - -
19/12:30pm 16.1 NW 16 19 1016.3 - 0.0 - - - - - - -
19/12:00pm 15.3 NW 16 19 1016.7 - 0.0 - - - - - - -
19/11:30am 15.9 NW 16 18 1017.0 - 0.0 - - - - - - -
19/11:00am 15.9 WNW 14 17 1017.7 - 0.0 - - - - - - -
19/10:30am 15.3 WNW 14 16 1017.4 - 0.0 - - - - - - -
19/10:00am 14.7 WNW 6 12 1017.5 - 0.0 - - - - - - -
19/09:30am 14.8 NW 7 8 1017.5 - 0.0 - - - - - - -
19/09:00am 14.8 WNW 9 11 1017.4 R 0.0 Fine Partly cloudy 25 1 1.0 3 NW
19/08:30am 14.4 NNW 8 9 1017.2 - 0.0 - - - - - - -
19/08:00am 14.5 NW 6 7 1016.9 - 0.0 - - - - - - -
19/07:30am 14.2 NNW 8 9 1016.9 - 0.0 - - - - - - -
19/07:00am 14.2 NNE 10 12 1016.9 - 0.0 - - - - - - -
19/06:30am 14.0 NE 13 15 1016.6 - 0.0 - - - - - - -
19/06:00am 13.5 ENE 11 16 1016.2 F 0.0 Fine Mostly cloudy 20 <0.5 0.5 3 -
19/05:30am 13.4 ENE 13 15 1016.4 - 0.0 - - - - - - -
19/05:00am 13.1 ENE 14 16 1016.3 - 0.0 - - - - - - -
19/04:30am 12.5 E 11 14 1017.0 - 0.0 - - - - - - -
19/04:00am 11.4 E 8 11 1017.8 - 0.0 - - - - - - -
19/03:30am 11.9 E 7 9 1018.2 - 0.0 - - - - - - -
19/03:00am 11.2 SSE 5 6 1018.6 - 0.0 - - - - - - -
19/02:30am 11.5 SE 5 8 1018.9 - 0.0 - - - - - - -
19/02:00am 10.8 SSE 6 8 1019.3 - 0.0 - - - - - - -
19/01:30am 11.5 SE 8 10 1019.6 - 0.0 - - - - - - -
19/01:00am 12.3 E 7 9 1020.1 - 0.0 - - - - - - -
19/12:30am 12.7 E 7 9 1020.8 - 0.0 - - - - - - -
19/12:00am 13.0 ENE 8 10 1020.7 - 0.0 - - - - - - -
 
Date/Time
EDT
Temp

°C
Wind Pressure Rain
since 9am
mm
Weather Cloud Vis
km
Sea
Height
m
Swell
Dir
 
Speed
knots
Gust
knots
hPa Trend Height
m
Period
s
Dir
18/11:30pm 13.2 E 9 11 1020.8 - 0.0 - - - - - - -
18/11:00pm 13.3 ENE 11 13 1021.0 - 0.0 - - - - - - -
18/10:30pm 13.3 ENE 11 13 1021.6 - 0.0 - - - - - - -
18/10:00pm 13.5 ENE 14 15 1021.6 - 0.0 - - - - - - -

Other Formats:

Comma delimited format used in spreadsheet applications
http://www.bom.gov.au/fwo/IDV60701/IDV60701.95964.axf

JavaScript Object Notation format (JSON) in row-major order
http://www.bom.gov.au/fwo/IDV60701/IDV60701.95964.json